Time;durP1;ratioP1;P1;durP2;ratioP2;P2;SDS_P1;SDS_P2;PMS_P1;PMS_P2;Temp;Humidity;BMP_temperature;BMP_pressure;BME280_temperature;BME280_humidity;BME280_pressure;Samples;Min_cycle;Max_cycle;Signal;HPM_P1;HPM_P2
2022/03/22 00:01:50;;;;;;;17.67;11.87;;;4.00;99.90;;;;;;4990467;28;20288;-34
2022/03/22 00:04:16;;;;;;;18.83;12.27;;;3.90;99.90;;;;;;4991601;28;20219;-34
2022/03/22 00:06:43;;;;;;;21.27;12.33;;;3.80;99.90;;;;;;4990527;28;20199;-34
2022/03/22 00:09:09;;;;;;;19.00;12.07;;;3.80;99.90;;;;;;4990456;28;20218;-36
2022/03/22 00:11:34;;;;;;;19.63;13.03;;;3.60;99.90;;;;;;4991849;28;20211;-34
2022/03/22 00:14:00;;;;;;;19.27;12.30;;;3.60;99.90;;;;;;4990207;28;20196;-34
2022/03/22 00:16:26;;;;;;;18.40;12.30;;;3.60;99.90;;;;;;5006881;28;20270;-34
2022/03/22 00:18:52;;;;;;;17.77;12.13;;;3.60;99.90;;;;;;4990282;28;20180;-34
2022/03/22 00:21:18;;;;;;;17.40;11.90;;;3.60;99.90;;;;;;4990245;28;20176;-34
2022/03/22 00:23:45;;;;;;;21.87;12.10;;;3.60;99.90;;;;;;4990280;28;20290;-34
2022/03/22 00:26:10;;;;;;;15.87;11.30;;;3.70;99.90;;;;;;4993668;28;20680;-33
2022/03/22 00:28:37;;;;;;;18.13;11.47;;;3.70;99.90;;;;;;5010673;28;20196;-34
2022/03/22 00:31:02;;;;;;;19.07;12.27;;;3.70;99.90;;;;;;4994190;28;20183;-34
2022/03/22 00:33:28;;;;;;;21.97;11.13;;;3.70;99.90;;;;;;4994107;28;20207;-34
2022/03/22 00:35:54;;;;;;;20.67;11.73;;;3.80;99.90;;;;;;4994211;28;20211;-34
2022/03/22 00:38:20;;;;;;;19.00;11.63;;;3.70;99.90;;;;;;4994252;28;20595;-34
2022/03/22 00:40:47;;;;;;;20.97;12.60;;;3.60;99.90;;;;;;4993856;28;20246;-34
2022/03/22 00:43:13;;;;;;;18.50;12.27;;;3.60;99.90;;;;;;4993936;28;20176;-33
2022/03/22 00:45:40;;;;;;;22.07;12.07;;;3.50;99.90;;;;;;5010358;28;20262;-34
2022/03/22 00:48:08;;;;;;;18.73;11.67;;;3.50;99.90;;;;;;4993944;28;20202;-33
2022/03/22 00:50:36;;;;;;;19.67;13.07;;;3.50;99.90;;;;;;4994090;28;20183;-33
2022/03/22 00:53:04;;;;;;;22.30;12.43;;;3.50;99.90;;;;;;4994034;28;20228;-34
2022/03/22 00:55:31;;;;;;;20.97;12.57;;;3.50;99.90;;;;;;5010356;28;20280;-33
2022/03/22 00:57:57;;;;;;;20.53;13.13;;;3.40;99.90;;;;;;4993883;28;20267;-34
2022/03/22 01:00:25;;;;;;;18.63;12.50;;;3.50;99.90;;;;;;4993565;28;20289;-33
2022/03/22 01:02:52;;;;;;;19.50;11.77;;;3.50;99.90;;;;;;5010182;28;20758;-33
2022/03/22 01:05:20;;;;;;;19.27;11.93;;;3.50;99.90;;;;;;4993564;28;20208;-33
2022/03/22 01:07:48;;;;;;;19.43;12.60;;;3.40;99.90;;;;;;4993212;28;20195;-33
2022/03/22 01:10:16;;;;;;;17.40;11.23;;;3.40;99.90;;;;;;4993366;28;20179;-33
2022/03/22 01:12:43;;;;;;;20.30;13.20;;;3.40;99.90;;;;;;4993764;28;20226;-33
2022/03/22 01:15:42;;;;;;;21.13;12.43;;;3.30;99.90;;;;;;4994613;28;20416;-34
2022/03/22 01:18:11;;;;;;;18.40;12.53;;;3.20;99.90;;;;;;4982805;28;20196;-33
2022/03/22 01:20:39;;;;;;;18.77;12.13;;;3.20;99.90;;;;;;5009760;28;20188;-34
2022/03/22 01:23:07;;;;;;;22.27;12.50;;;3.20;99.90;;;;;;4993280;28;20299;-33
2022/03/22 01:25:34;;;;;;;17.50;11.57;;;3.30;99.90;;;;;;4993109;28;20200;-33
2022/03/22 01:28:02;;;;;;;18.87;12.50;;;3.40;99.90;;;;;;4993612;28;20195;-34
2022/03/22 01:30:29;;;;;;;19.50;12.27;;;3.30;99.90;;;;;;4993121;28;20191;-33
2022/03/22 01:32:57;;;;;;;17.47;11.80;;;3.30;99.90;;;;;;4993495;28;20667;-33
2022/03/22 01:35:25;;;;;;;19.43;12.17;;;3.30;99.90;;;;;;5009132;28;20243;-34
2022/03/22 01:37:53;;;;;;;21.00;12.53;;;3.20;99.90;;;;;;4992532;28;20176;-33
2022/03/22 01:40:21;;;;;;;18.50;12.37;;;3.10;99.90;;;;;;4992763;28;20194;-33
2022/03/22 01:42:48;;;;;;;18.47;12.20;;;3.00;99.90;;;;;;4993153;28;20229;-34
2022/03/22 01:45:15;;;;;;;16.83;12.50;;;2.80;99.90;;;;;;4993059;28;20202;-33
2022/03/22 01:47:43;;;;;;;21.17;12.83;;;2.60;99.90;;;;;;5023836;23;20217;-85
2022/03/22 01:50:12;;;;;;;21.60;12.70;;;2.50;99.90;;;;;;5051970;28;20174;-85
2022/03/22 01:52:40;;;;;;;25.47;13.50;;;2.30;99.90;;;;;;5019252;28;20212;-85
2022/03/22 01:55:15;;;;;;;21.47;13.43;;;2.40;99.90;;;;;;5016007;28;20233;-85
2022/03/22 01:57:41;;;;;;;20.07;12.20;;;2.40;99.90;;;;;;5016255;28;20189;-85
2022/03/22 02:00:10;;;;;;;19.47;13.27;;;2.40;99.90;;;;;;5033012;28;20192;-85
2022/03/22 02:08:16;;;;;;;19.50;13.10;;;2.60;99.90;;;;;;5033255;28;20186;-85
2022/03/22 02:11:10;;;;;;;17.53;11.80;;;2.60;99.90;;;;;;5016161;28;20279;-85
2022/03/22 02:13:36;;;;;;;18.27;11.70;;;2.60;99.90;;;;;;5015448;28;20201;-85
2022/03/22 02:16:02;;;;;;;18.03;11.43;;;2.70;99.90;;;;;;5015132;28;20182;-85
2022/03/22 02:18:28;;;;;;;18.00;11.57;;;2.80;99.90;;;;;;5031866;28;20272;-85
2022/03/22 02:20:54;;;;;;;18.80;11.77;;;2.80;99.90;;;;;;5015153;28;20190;-85
2022/03/22 02:23:44;;;;;;;18.00;11.13;;;2.70;99.90;;;;;;5014925;28;20190;-85
2022/03/22 02:26:10;;;;;;;21.77;11.80;;;2.60;99.90;;;;;;5014745;28;20278;-85
2022/03/22 02:28:35;;;;;;;20.00;11.73;;;2.50;99.90;;;;;;5015191;28;20273;-85
2022/03/22 02:31:02;;;;;;;16.07;11.60;;;2.50;99.90;;;;;;5014794;28;20205;-85
2022/03/22 02:33:28;;;;;;;19.47;12.57;;;2.40;99.90;;;;;;5015085;28;20246;-85
2022/03/22 02:35:54;;;;;;;19.67;11.40;;;2.40;99.90;;;;;;5014715;28;20217;-85
2022/03/22 02:38:19;;;;;;;23.27;11.83;;;2.40;99.90;;;;;;5014783;28;20178;-85
2022/03/22 02:40:46;;;;;;;18.47;12.23;;;2.40;99.90;;;;;;5014650;28;20190;-85
2022/03/22 02:43:12;;;;;;;19.37;11.87;;;2.40;99.90;;;;;;5014697;28;20182;-85
2022/03/22 02:45:38;;;;;;;21.33;12.40;;;2.30;99.90;;;;;;5014670;28;20182;-85
2022/03/22 02:48:04;;;;;;;19.90;12.00;;;2.30;99.90;;;;;;5014640;28;20193;-85
2022/03/22 02:50:30;;;;;;;18.83;12.23;;;2.20;99.90;;;;;;5013388;28;20189;-85
2022/03/22 02:52:57;;;;;;;19.97;12.60;;;2.10;99.90;;;;;;5031076;28;20205;-85
2022/03/22 02:55:22;;;;;;;20.83;12.03;;;1.70;99.90;;;;;;5014313;28;20252;-85
2022/03/22 02:57:49;;;;;;;22.23;13.03;;;1.30;99.90;;;;;;5014670;28;20205;-85
2022/03/22 03:00:15;;;;;;;22.17;13.57;;;1.30;99.90;;;;;;5014170;28;20235;-85
2022/03/22 03:02:47;;;;;;;23.23;13.57;;;1.40;99.90;;;;;;5014308;28;20623;-85
2022/03/22 03:05:14;;;;;;;22.50;12.07;;;1.60;99.90;;;;;;5014085;28;20194;-85
2022/03/22 03:07:39;;;;;;;18.83;11.97;;;1.60;99.90;;;;;;5030548;28;20188;-85
2022/03/22 03:10:07;;;;;;;20.83;11.93;;;1.70;99.90;;;;;;5013981;28;20185;-85
2022/03/22 03:12:38;;;;;;;19.13;12.10;;;1.80;99.90;;;;;;5014175;28;20260;-85
2022/03/22 03:15:07;;;;;;;21.20;12.40;;;1.70;99.90;;;;;;5014090;28;20216;-85
2022/03/22 03:17:33;;;;;;;18.70;12.83;;;1.80;99.90;;;;;;5014311;28;20186;-85
2022/03/22 03:19:59;;;;;;;20.07;12.67;;;1.90;99.90;;;;;;5014001;28;20181;-85
2022/03/22 03:22:25;;;;;;;20.07;12.27;;;1.90;99.90;;;;;;5014345;28;20289;-85
2022/03/22 03:24:51;;;;;;;18.27;11.73;;;1.70;99.90;;;;;;5031864;28;20265;-85
2022/03/22 03:27:17;;;;;;;17.00;12.00;;;1.60;99.90;;;;;;5013927;28;20185;-85
2022/03/22 03:29:45;;;;;;;22.63;12.37;;;1.50;99.90;;;;;;5030260;28;20231;-85
2022/03/22 03:32:12;;;;;;;18.37;11.80;;;1.50;99.90;;;;;;4997616;28;20303;-85
2022/03/22 03:34:38;;;;;;;22.30;13.23;;;1.40;99.90;;;;;;5013906;28;20228;-85
2022/03/22 03:37:04;;;;;;;21.53;12.37;;;1.40;99.90;;;;;;5013469;28;20209;-85
2022/03/22 03:39:30;;;;;;;19.77;12.63;;;1.40;99.90;;;;;;5013528;28;20188;-85
2022/03/22 03:41:57;;;;;;;19.10;12.20;;;1.40;99.90;;;;;;5013675;28;20208;-85
2022/03/22 03:47:18;;;;;;;23.80;12.57;;;1.40;99.90;;;;;;5029946;28;20200;-85
2022/03/22 03:49:46;;;;;;;23.27;12.30;;;1.20;99.90;;;;;;5013393;28;20189;-85
2022/03/22 03:52:18;;;;;;;19.87;12.60;;;1.10;99.90;;;;;;5029877;28;20688;-85
2022/03/22 03:54:44;;;;;;;25.00;12.50;;;1.00;99.90;;;;;;5013477;28;20208;-85
2022/03/22 03:57:11;;;;;;;19.07;12.20;;;0.90;99.90;;;;;;5029884;28;20180;-85
2022/03/22 03:59:38;;;;;;;20.50;11.63;;;1.00;99.90;;;;;;5001108;28;20190;-85
2022/03/22 04:02:06;;;;;;;19.13;11.77;;;1.00;99.90;;;;;;4993376;28;20205;-85
2022/03/22 04:04:35;;;;;;;21.67;12.30;;;1.10;99.90;;;;;;4993655;28;20531;-85
2022/03/22 04:07:02;;;;;;;23.93;12.90;;;1.10;99.90;;;;;;5010221;28;20185;-85
2022/03/22 04:09:28;;;;;;;21.67;12.23;;;1.10;99.90;;;;;;4993013;28;20528;-85
2022/03/22 04:11:54;;;;;;;20.57;12.63;;;1.10;99.90;;;;;;4993547;28;20272;-85
2022/03/22 04:14:20;;;;;;;21.23;12.97;;;1.20;99.90;;;;;;4993335;28;20268;-85
2022/03/22 04:16:46;;;;;;;18.90;12.40;;;1.20;99.90;;;;;;4993565;28;20256;-85
2022/03/22 04:19:12;;;;;;;17.60;12.40;;;1.20;99.90;;;;;;5010010;28;20236;-85
2022/03/22 04:21:39;;;;;;;18.73;11.50;;;1.20;99.90;;;;;;4993432;28;20284;-85
2022/03/22 04:24:08;;;;;;;21.77;12.07;;;1.20;99.90;;;;;;4993304;28;20185;-85
2022/03/22 04:26:35;;;;;;;18.20;11.80;;;1.10;99.90;;;;;;4993953;28;20236;-85
2022/03/22 04:34:34;;;;;;;19.47;11.67;;;1.10;99.90;;;;;;5029811;28;20196;-85
2022/03/22 04:37:01;;;;;;;19.30;11.70;;;1.10;99.90;;;;;;5015623;28;20169;-86
2022/03/22 04:39:31;;;;;;;19.17;12.63;;;1.20;99.90;;;;;;5015077;28;20272;-85
2022/03/22 04:42:03;;;;;;;20.90;12.17;;;1.20;99.90;;;;;;5014412;28;20234;-85
2022/03/22 04:44:29;;;;;;;22.90;12.90;;;1.20;99.90;;;;;;5028108;28;20214;-85
2022/03/22 04:46:57;;;;;;;23.00;12.80;;;1.20;99.90;;;;;;5012725;28;20270;-84
2022/03/22 04:49:24;;;;;;;17.60;11.40;;;1.10;99.90;;;;;;5012628;28;20303;-85
2022/03/22 04:57:19;;;;;;;19.30;11.17;;;0.80;99.90;;;;;;5029022;28;20190;-85
2022/03/22 04:59:45;;;;;;;19.77;11.93;;;0.60;99.90;;;;;;5012680;28;20195;-85
2022/03/22 05:02:11;;;;;;;22.33;12.57;;;0.50;99.90;;;;;;5012264;28;20197;-85
2022/03/22 05:04:37;;;;;;;19.53;12.43;;;0.40;99.90;;;;;;5014599;28;20287;-84
2022/03/22 05:07:04;;;;;;;21.37;12.77;;;0.20;99.90;;;;;;5005159;28;20594;-84
2022/03/22 05:09:31;;;;;;;19.60;12.60;;;0.20;99.90;;;;;;5003114;28;20181;-84
2022/03/22 05:11:57;;;;;;;22.93;13.33;;;0.10;99.90;;;;;;5020802;28;20619;-84
2022/03/22 05:14:23;;;;;;;21.20;13.07;;;0.00;99.90;;;;;;5004555;28;20214;-84
2022/03/22 05:16:49;;;;;;;24.10;14.37;;;-0.10;99.90;;;;;;5002352;28;20183;-84
2022/03/22 05:19:16;;;;;;;30.23;14.00;;;-0.10;99.90;;;;;;5018515;28;20175;-84
2022/03/22 05:21:42;;;;;;;25.90;14.50;;;-0.10;99.90;;;;;;5002537;28;20203;-84
2022/03/22 05:24:08;;;;;;;24.93;14.10;;;-0.20;99.90;;;;;;5002635;28;20190;-84
2022/03/22 05:26:34;;;;;;;20.93;13.40;;;-0.10;99.90;;;;;;5018641;28;20258;-84
2022/03/22 05:29:04;;;;;;;28.43;14.87;;;-0.10;99.90;;;;;;5009287;28;20195;-84
2022/03/22 05:31:31;;;;;;;21.63;13.50;;;-0.10;99.90;;;;;;5039027;28;20298;-84
2022/03/22 05:34:01;;;;;;;22.83;13.20;;;-0.10;99.90;;;;;;5023374;28;20218;-84
2022/03/22 05:36:27;;;;;;;30.63;16.90;;;0.00;99.90;;;;;;5038664;28;20183;-84
2022/03/22 05:38:54;;;;;;;31.43;15.33;;;-0.10;99.90;;;;;;5034619;28;20266;-84
2022/03/22 05:41:20;;;;;;;29.40;15.83;;;0.00;99.90;;;;;;5018232;28;20201;-84
2022/03/22 05:43:47;;;;;;;27.73;15.57;;;0.00;99.90;;;;;;5046735;28;20190;-84
2022/03/22 05:46:17;;;;;;;29.53;16.80;;;-0.10;99.90;;;;;;5041852;28;20167;-84
2022/03/22 05:48:44;;;;;;;24.67;15.10;;;-0.10;99.90;;;;;;5035720;28;20186;-83
2022/03/22 05:51:10;;;;;;;24.37;14.23;;;0.00;99.90;;;;;;5012300;28;20204;-84
2022/03/22 05:53:37;;;;;;;24.20;14.93;;;0.00;99.90;;;;;;5005206;28;20178;-84
2022/03/22 05:56:03;;;;;;;28.27;15.63;;;0.10;99.90;;;;;;5020473;28;20210;-84
2022/03/22 05:58:32;;;;;;;27.90;15.00;;;0.20;99.90;;;;;;5007037;28;20233;-84
2022/03/22 06:00:58;;;;;;;24.93;12.70;;;0.20;99.90;;;;;;4999185;28;20202;-84
2022/03/22 06:03:24;;;;;;;24.47;13.73;;;0.30;99.90;;;;;;4997137;28;20183;-84
2022/03/22 06:05:50;;;;;;;23.60;13.93;;;0.40;99.90;;;;;;5014610;28;20266;-85
2022/03/22 06:08:16;;;;;;;24.93;14.63;;;0.50;99.90;;;;;;4997953;28;20176;-84
2022/03/22 06:10:42;;;;;;;24.70;13.73;;;0.50;99.90;;;;;;4997058;28;20233;-84
2022/03/22 06:13:08;;;;;;;27.77;13.77;;;0.50;99.90;;;;;;4995999;28;20190;-84
2022/03/22 06:15:34;;;;;;;23.03;13.27;;;0.50;99.90;;;;;;5011970;28;20230;-84
2022/03/22 06:18:03;;;;;;;22.47;12.20;;;0.60;99.90;;;;;;5013503;28;20258;-84
2022/03/22 06:20:37;;;;;;;20.63;13.30;;;0.70;99.90;;;;;;4995892;28;20226;-84
2022/03/22 06:23:05;;;;;;;23.17;12.37;;;0.90;99.90;;;;;;4995206;28;20200;-84
2022/03/22 06:25:32;;;;;;;20.37;12.60;;;1.00;99.90;;;;;;4995617;28;20262;-84
2022/03/22 06:27:58;;;;;;;22.90;12.97;;;1.20;99.90;;;;;;5011911;28;20529;-84
2022/03/22 06:30:25;;;;;;;21.27;12.57;;;1.30;99.90;;;;;;5014107;28;20195;-84
2022/03/22 06:32:57;;;;;;;20.57;12.27;;;1.40;99.90;;;;;;5014837;28;20225;-84
2022/03/22 06:35:32;;;;;;;24.37;13.07;;;1.60;99.90;;;;;;5031189;28;20209;-85
2022/03/22 06:37:59;;;;;;;22.83;13.17;;;1.70;99.90;;;;;;5031286;28;20172;-86
2022/03/22 06:40:28;;;;;;;22.40;13.57;;;1.80;99.90;;;;;;5014575;28;20185;-84
2022/03/22 06:42:56;;;;;;;22.13;13.93;;;1.90;99.90;;;;;;5014875;28;20230;-84
2022/03/22 06:45:22;;;;;;;19.70;13.10;;;2.00;99.90;;;;;;5014605;28;20749;-84
2022/03/22 06:47:48;;;;;;;20.00;12.93;;;2.10;99.90;;;;;;5014823;28;20293;-84
2022/03/22 06:50:16;;;;;;;20.93;12.50;;;2.20;99.90;;;;;;5014253;28;20251;-84
2022/03/22 06:52:42;;;;;;;20.17;12.83;;;2.30;99.90;;;;;;5030829;28;20209;-85
2022/03/22 06:55:10;;;;;;;22.63;12.37;;;2.40;99.90;;;;;;5030979;28;20210;-85
2022/03/22 06:57:37;;;;;;;19.13;12.47;;;2.50;99.90;;;;;;5015070;28;20185;-85
2022/03/22 07:00:11;;;;;;;17.57;11.90;;;2.60;99.90;;;;;;5014340;28;20195;-85
2022/03/22 07:02:41;;;;;;;19.60;12.53;;;2.70;99.90;;;;;;5014366;28;20203;-84
2022/03/22 07:05:11;;;;;;;19.10;12.27;;;2.80;99.90;;;;;;5015670;28;20240;-85
2022/03/22 07:07:38;;;;;;;23.37;12.97;;;3.00;99.90;;;;;;5017018;28;20273;-85
2022/03/22 07:10:05;;;;;;;18.00;11.77;;;3.10;99.90;;;;;;5016201;28;20193;-85
2022/03/22 07:12:31;;;;;;;18.57;12.33;;;3.20;99.90;;;;;;5013431;28;20212;-84
2022/03/22 07:14:57;;;;;;;22.80;12.50;;;3.30;99.90;;;;;;5012325;28;20215;-84
2022/03/22 07:17:23;;;;;;;17.43;11.73;;;3.50;99.90;;;;;;5030372;28;20174;-84
2022/03/22 07:19:49;;;;;;;20.47;12.40;;;3.60;99.90;;;;;;5013662;28;20244;-84
2022/03/22 07:22:15;;;;;;;16.27;11.43;;;3.70;99.90;;;;;;5013567;28;20202;-84
2022/03/22 07:24:41;;;;;;;17.97;12.40;;;3.80;99.90;;;;;;5030128;28;20189;-84
2022/03/22 07:27:07;;;;;;;19.47;12.37;;;3.80;99.90;;;;;;5013346;28;20178;-84
2022/03/22 07:29:33;;;;;;;19.57;12.17;;;3.90;99.90;;;;;;5001957;28;20623;-84
2022/03/22 07:31:59;;;;;;;15.80;11.37;;;4.00;99.90;;;;;;4994185;28;20210;-84
2022/03/22 07:34:25;;;;;;;20.83;12.10;;;4.00;99.90;;;;;;5010447;28;20286;-84
2022/03/22 07:36:52;;;;;;;17.10;12.20;;;4.10;99.90;;;;;;4993632;28;20180;-84
2022/03/22 07:39:21;;;;;;;20.70;12.47;;;4.20;99.90;;;;;;4994503;28;20176;-84
2022/03/22 07:41:48;;;;;;;21.73;12.50;;;4.30;99.90;;;;;;4994477;28;20210;-84
2022/03/22 07:44:15;;;;;;;22.30;13.40;;;4.40;99.90;;;;;;5026015;28;20193;-84
2022/03/22 07:46:45;;;;;;;20.97;12.17;;;4.60;99.90;;;;;;5012924;28;20187;-84
2022/03/22 07:54:42;;;;;;;19.67;12.13;;;5.10;99.90;;;;;;5010012;28;20302;-84
2022/03/22 07:57:08;;;;;;;20.50;12.97;;;5.30;99.90;;;;;;4993800;28;20206;-84
2022/03/22 07:59:35;;;;;;;18.47;12.27;;;5.40;99.90;;;;;;5005526;28;20530;-84
2022/03/22 08:02:02;;;;;;;19.13;13.03;;;5.60;99.90;;;;;;5012845;28;20289;-85
2022/03/22 08:04:28;;;;;;;21.30;12.47;;;5.80;99.90;;;;;;5029892;28;20186;-85
2022/03/22 08:06:54;;;;;;;16.63;12.53;;;5.90;99.90;;;;;;5029605;28;20266;-84
2022/03/22 08:09:20;;;;;;;20.50;13.50;;;6.00;99.90;;;;;;5012985;28;20186;-85
2022/03/22 08:11:46;;;;;;;17.83;12.70;;;6.20;99.90;;;;;;5012858;28;20200;-84
2022/03/22 08:14:12;;;;;;;17.87;12.67;;;6.40;99.90;;;;;;5012687;28;20203;-84
2022/03/22 08:16:38;;;;;;;17.77;12.37;;;6.50;99.90;;;;;;5030826;28;20174;-84
2022/03/22 08:19:05;;;;;;;17.83;13.07;;;6.50;99.90;;;;;;5013081;28;20187;-84
2022/03/22 08:21:31;;;;;;;20.63;12.93;;;6.60;99.90;;;;;;5013443;28;20284;-84
2022/03/22 08:23:58;;;;;;;21.83;12.87;;;6.70;99.90;;;;;;5012933;28;20198;-85
2022/03/22 08:26:24;;;;;;;17.67;12.67;;;7.00;99.90;;;;;;5013010;28;20185;-84
2022/03/22 08:28:50;;;;;;;18.23;12.53;;;7.20;99.90;;;;;;5012853;28;20195;-85
2022/03/22 08:31:16;;;;;;;20.07;12.43;;;7.50;99.90;;;;;;5013009;28;20318;-85
2022/03/22 08:33:42;;;;;;;17.47;12.00;;;7.60;99.90;;;;;;5029635;28;20224;-84
2022/03/22 08:36:08;;;;;;;22.93;13.53;;;7.80;99.90;;;;;;5012864;28;20233;-84
2022/03/22 08:38:34;;;;;;;18.27;13.10;;;7.80;99.90;;;;;;5012815;28;20268;-84
2022/03/22 08:41:01;;;;;;;18.13;12.67;;;8.00;99.90;;;;;;5028639;28;20186;-85
2022/03/22 08:43:28;;;;;;;18.73;12.87;;;8.10;99.90;;;;;;5012615;28;20178;-84
2022/03/22 08:45:54;;;;;;;18.40;12.70;;;8.10;99.90;;;;;;5012905;28;20192;-85
2022/03/22 08:48:21;;;;;;;19.03;12.03;;;8.30;99.90;;;;;;5014861;28;20220;-84
2022/03/22 08:50:49;;;;;;;17.27;12.20;;;8.40;99.90;;;;;;5032734;28;20190;-85
2022/03/22 08:53:17;;;;;;;17.87;12.63;;;8.60;99.90;;;;;;5016941;28;20190;-85
2022/03/22 08:55:47;;;;;;;18.80;12.90;;;8.80;99.90;;;;;;5033026;28;20278;-85
2022/03/22 08:58:14;;;;;;;17.83;12.23;;;8.90;99.90;;;;;;5033105;28;20186;-84
2022/03/22 09:00:41;;;;;;;19.27;12.87;;;9.00;99.90;;;;;;5016847;28;20182;-85
2022/03/22 09:03:09;;;;;;;19.13;12.63;;;9.10;99.90;;;;;;5016771;28;20183;-85
2022/03/22 09:08:20;;;;;;;21.17;12.77;;;9.50;99.90;;;;;;5034161;28;20639;-84
2022/03/22 09:10:49;;;;;;;17.30;12.67;;;9.70;99.90;;;;;;5017443;28;20185;-85
2022/03/22 09:13:16;;;;;;;16.07;12.57;;;9.90;99.90;;;;;;5017902;28;20191;-85
2022/03/22 09:15:43;;;;;;;18.47;13.10;;;9.80;99.90;;;;;;5017231;28;20242;-85
2022/03/22 09:18:14;;;;;;;17.20;13.30;;;9.90;99.90;;;;;;5017421;28;20186;-85
2022/03/22 09:20:42;;;;;;;17.80;12.50;;;10.10;99.90;;;;;;5032570;28;20186;-85
2022/03/22 09:23:08;;;;;;;18.10;12.13;;;10.20;99.90;;;;;;5032217;28;20178;-85
2022/03/22 09:25:36;;;;;;;15.07;12.47;;;10.50;99.90;;;;;;5016307;28;20266;-85
2022/03/22 09:28:05;;;;;;;19.80;13.23;;;10.70;99.90;;;;;;5016035;28;20244;-85
2022/03/22 09:30:32;;;;;;;16.93;12.63;;;11.00;99.90;;;;;;5015832;28;20190;-85
2022/03/22 09:32:58;;;;;;;17.70;13.47;;;11.10;99.90;;;;;;5032585;28;20201;-85
2022/03/22 09:35:24;;;;;;;18.30;12.10;;;11.20;99.90;;;;;;5015918;28;20214;-85
2022/03/22 09:37:50;;;;;;;17.90;12.53;;;11.30;99.60;;;;;;5016138;28;20543;-85
2022/03/22 09:40:18;;;;;;;16.60;12.93;;;11.50;99.90;;;;;;5015977;28;20179;-85
2022/03/22 09:42:48;;;;;;;18.23;12.97;;;11.50;99.00;;;;;;5015885;28;20232;-85
2022/03/22 09:45:20;;;;;;;17.37;13.23;;;11.60;98.10;;;;;;5015885;28;20190;-85
2022/03/22 09:47:46;;;;;;;16.63;12.00;;;11.80;97.90;;;;;;5032204;28;20186;-85
2022/03/22 09:50:14;;;;;;;18.30;13.13;;;11.80;98.00;;;;;;5032047;28;20249;-84
2022/03/22 09:52:40;;;;;;;17.47;12.60;;;11.80;98.00;;;;;;5015860;28;20202;-85
2022/03/22 09:55:10;;;;;;;21.60;13.63;;;12.10;97.50;;;;;;5015992;28;20183;-85
2022/03/22 09:57:38;;;;;;;20.87;13.70;;;12.20;97.20;;;;;;5015697;28;20182;-85
2022/03/22 10:00:06;;;;;;;19.60;13.73;;;12.40;97.20;;;;;;5031394;28;20194;-85
2022/03/22 10:02:38;;;;;;;17.40;13.03;;;12.50;96.30;;;;;;5032124;28;20263;-85
2022/03/22 10:05:04;;;;;;;19.13;13.93;;;12.60;95.20;;;;;;5015488;28;20257;-85
2022/03/22 10:07:30;;;;;;;17.50;12.40;;;12.40;95.40;;;;;;5015460;28;20187;-85
2022/03/22 10:09:59;;;;;;;18.30;13.57;;;12.50;95.90;;;;;;5015060;28;20176;-85
2022/03/22 10:12:32;;;;;;;16.07;12.97;;;12.50;95.70;;;;;;5031768;28;20202;-85
2022/03/22 10:15:08;;;;;;;17.50;13.37;;;12.60;96.10;;;;;;5015297;28;20179;-85
2022/03/22 10:17:35;;;;;;;16.67;13.27;;;12.70;96.20;;;;;;5015217;28;20254;-85
2022/03/22 10:20:01;;;;;;;20.00;14.00;;;12.80;95.20;;;;;;5031790;28;20182;-85
2022/03/22 10:22:28;;;;;;;18.30;13.10;;;12.70;95.10;;;;;;5031145;28;20202;-85
2022/03/22 10:24:58;;;;;;;19.97;13.90;;;12.80;95.20;;;;;;5031535;28;20224;-85
2022/03/22 10:27:26;;;;;;;18.00;13.13;;;12.80;95.60;;;;;;5015000;28;20217;-85
2022/03/22 10:29:53;;;;;;;17.90;14.03;;;13.00;95.70;;;;;;5014927;28;20191;-85
2022/03/22 10:32:33;;;;;;;18.33;12.77;;;13.20;94.80;;;;;;5031447;28;20316;-85
2022/03/22 10:35:20;;;;;;;20.27;14.10;;;13.40;94.90;;;;;;5014444;28;20182;-85
2022/03/22 10:37:48;;;;;;;16.77;13.17;;;13.70;95.20;;;;;;5031446;28;20182;-85
2022/03/22 10:40:44;;;;;;;15.90;12.70;;;13.90;95.60;;;;;;5014686;28;20260;-85
2022/03/22 10:43:18;;;;;;;17.43;13.10;;;14.10;95.20;;;;;;5031069;28;20186;-85
2022/03/22 10:45:48;;;;;;;16.53;12.90;;;14.20;94.50;;;;;;5014666;28;20218;-85
2022/03/22 10:48:33;;;;;;;17.53;13.37;;;14.40;94.10;;;;;;5014837;28;20197;-85
2022/03/22 10:51:00;;;;;;;18.87;13.17;;;14.60;93.00;;;;;;5014555;28;20189;-85
2022/03/22 10:53:35;;;;;;;15.57;12.53;;;14.80;92.30;;;;;;5031079;28;20638;-85
2022/03/22 10:56:03;;;;;;;17.73;13.77;;;15.10;92.00;;;;;;5031096;28;20216;-86
2022/03/22 10:58:30;;;;;;;17.33;13.53;;;15.20;91.20;;;;;;5014513;28;20209;-85
2022/03/22 11:00:57;;;;;;;16.60;13.27;;;15.10;91.30;;;;;;5014367;28;20237;-85
2022/03/22 11:03:25;;;;;;;15.60;13.20;;;15.20;92.10;;;;;;5030820;28;20186;-86
2022/03/22 11:05:52;;;;;;;17.07;13.60;;;15.20;90.80;;;;;;5014203;28;20260;-86
2022/03/22 11:08:25;;;;;;;15.70;13.00;;;15.40;91.50;;;;;;5030620;28;20202;-86
2022/03/22 11:10:53;;;;;;;20.77;13.77;;;15.50;90.70;;;;;;5013136;28;20179;-85
2022/03/22 11:13:19;;;;;;;21.20;13.20;;;15.60;90.50;;;;;;5005455;28;20190;-86
2022/03/22 11:15:50;;;;;;;16.43;13.50;;;15.50;90.80;;;;;;5006144;28;20679;-86
2022/03/22 11:18:20;;;;;;;17.03;12.80;;;15.70;91.60;;;;;;5010833;28;20282;-86
2022/03/22 11:20:57;;;;;;;18.50;13.70;;;16.00;91.20;;;;;;5004425;28;20181;-86
2022/03/22 11:23:27;;;;;;;20.03;13.33;;;15.70;88.50;;;;;;5024808;28;20163;-85
2022/03/22 11:26:19;;;;;;;18.33;13.73;;;15.50;89.00;;;;;;5015637;28;20217;-85
2022/03/22 11:28:50;;;;;;;18.20;13.37;;;15.70;91.00;;;;;;5024139;28;20205;-86
2022/03/22 11:31:19;;;;;;;17.10;12.43;;;15.80;89.40;;;;;;5014769;28;20285;-86
2022/03/22 11:36:47;;;;;;;17.27;13.57;;;16.30;90.00;;;;;;5025217;28;20168;-86
2022/03/22 11:39:19;;;;;;;17.43;12.93;;;16.60;88.70;;;;;;5001356;28;20171;-86
2022/03/22 11:44:39;;;;;;;18.57;13.57;;;16.50;87.30;;;;;;5019724;28;20249;-86
2022/03/22 11:47:14;;;;;;;18.23;13.25;;;16.60;89.30;;;;;;5018543;28;20209;-86
2022/03/22 11:50:16;;;;;;;18.08;13.30;;;16.70;87.50;;;;;;5000340;28;20274;-86
2022/03/22 11:52:43;;;;;;;19.00;13.02;;;17.00;87.70;;;;;;4995893;28;20190;-86
2022/03/22 11:55:24;;;;;;;18.58;14.77;;;17.30;89.50;;;;;;4995933;28;20179;-86
2022/03/22 11:57:58;;;;;;;19.13;12.90;;;17.40;87.70;;;;;;4995894;28;20172;-86
2022/03/22 12:01:00;;;;;;;18.50;13.32;;;17.70;86.80;;;;;;5013950;28;20197;-86
2022/03/22 12:03:35;;;;;;;18.02;13.85;;;17.50;85.80;;;;;;5031830;28;20177;-86
2022/03/22 12:06:13;;;;;;;18.20;14.38;;;17.40;86.00;;;;;;5014646;28;20264;-86
2022/03/22 12:08:49;;;;;;;20.10;14.88;;;17.60;88.40;;;;;;5009906;28;20648;-86
2022/03/22 12:11:16;;;;;;;15.25;13.32;;;17.80;85.70;;;;;;4995517;28;20206;-86
2022/03/22 12:13:44;;;;;;;17.20;13.38;;;18.00;86.40;;;;;;5011705;28;20254;-86
2022/03/22 12:16:10;;;;;;;15.40;13.40;;;18.20;86.50;;;;;;4995714;28;20221;-86
2022/03/22 12:18:39;;;;;;;17.70;14.30;;;18.40;85.90;;;;;;5008608;28;20218;-86
2022/03/22 12:21:18;;;;;;;20.40;14.25;;;18.50;83.50;;;;;;5014815;28;20205;-86
2022/03/22 12:23:46;;;;;;;18.02;13.50;;;18.40;82.40;;;;;;5015091;28;20190;-86
2022/03/22 12:26:12;;;;;;;16.40;12.65;;;18.50;83.30;;;;;;4998487;28;20241;-86
2022/03/22 12:28:49;;;;;;;16.42;11.90;;;18.70;82.70;;;;;;4999831;28;20182;-86
2022/03/22 12:31:21;;;;;;;13.70;10.45;;;18.90;76.40;;;;;;5013737;28;20201;-84
2022/03/22 12:33:56;;;;;;;14.52;11.18;;;19.00;76.10;;;;;;5001446;28;20172;-85
2022/03/22 12:36:22;;;;;;;15.20;11.90;;;19.00;75.30;;;;;;5015238;28;20201;-85
2022/03/22 12:38:48;;;;;;;16.00;11.90;;;19.10;75.30;;;;;;5014085;28;20178;-85
2022/03/22 12:41:14;;;;;;;13.80;11.00;;;19.10;75.90;;;;;;5020974;28;20203;-83
2022/03/22 12:43:48;;;;;;;14.40;10.98;;;19.30;75.10;;;;;;5016093;28;20262;-82
2022/03/22 12:46:16;;;;;;;14.07;11.93;;;19.50;76.70;;;;;;4998284;28;20179;-81
2022/03/22 12:48:42;;;;;;;15.60;11.57;;;19.60;77.20;;;;;;5001147;28;20202;-82
2022/03/22 12:51:09;;;;;;;15.20;11.75;;;19.30;74.50;;;;;;5002894;28;20199;-84
2022/03/22 12:53:37;;;;;;;13.07;10.93;;;19.40;73.90;;;;;;5011120;28;20664;-89
2022/03/22 12:56:14;;;;;;;13.45;10.93;;;19.40;76.80;;;;;;5013892;28;20170;-90
2022/03/22 12:58:40;;;;;;;18.40;11.70;;;19.70;76.50;;;;;;5007646;28;20182;-88
2022/03/22 13:01:05;;;;;;;17.80;11.73;;;19.80;74.60;;;;;;5013623;28;20217;-88
2022/03/22 13:03:32;;;;;;;16.20;12.00;;;20.00;74.70;;;;;;5012922;28;20186;-88
2022/03/22 13:05:58;;;;;;;18.80;12.70;;;20.20;73.20;;;;;;5014531;28;20222;-88
2022/03/22 13:08:27;;;;;;;16.25;12.15;;;20.10;72.20;;;;;;5015517;28;20182;-88
2022/03/22 13:16:30;;;;;;;15.05;12.02;;;20.20;75.90;;;;;;5031521;28;20170;-86
2022/03/22 13:18:58;;;;;;;16.80;11.57;;;19.90;67.60;;;;;;5029988;28;20198;-85